createdAt,value
2017-09-12T00:02:26.285Z,96.00
2017-09-12T00:04:53.743Z,95.90
2017-09-12T00:07:21.210Z,96.00
2017-09-12T00:09:49.450Z,96.40
2017-09-12T00:12:16.918Z,96.10
2017-09-12T00:14:44.401Z,96.30
2017-09-12T00:17:11.851Z,96.50
2017-09-12T00:19:39.334Z,96.70
2017-09-12T00:22:06.811Z,96.60
2017-09-12T00:24:34.264Z,96.70
2017-09-12T00:27:02.128Z,96.40
2017-09-12T00:29:29.583Z,96.50
2017-09-12T00:31:57.087Z,96.20
2017-09-12T00:34:25.328Z,96.20
2017-09-12T00:36:52.795Z,96.20
2017-09-12T00:39:20.275Z,96.30
2017-09-12T00:41:47.755Z,96.40
2017-09-12T00:44:15.987Z,96.20
2017-09-12T00:46:43.449Z,96.20
2017-09-12T00:49:10.927Z,96.50
2017-09-12T00:51:38.383Z,96.40
2017-09-12T00:54:05.847Z,96.30
2017-09-12T00:56:34.099Z,96.30
2017-09-12T00:59:01.579Z,96.20
2017-09-12T01:01:29.835Z,96.10
2017-09-12T01:03:57.295Z,96.10
2017-09-12T01:06:24.759Z,96.20
2017-09-12T01:08:52.218Z,96.10
2017-09-12T01:11:20.458Z,96.40
2017-09-12T01:13:47.936Z,96.00
2017-09-12T01:16:15.403Z,96.30
2017-09-12T01:18:42.883Z,96.40
2017-09-12T01:21:10.351Z,96.20
2017-09-12T01:23:37.810Z,96.30
2017-09-12T01:26:05.287Z,96.50
2017-09-12T01:28:33.760Z,96.60
2017-09-12T01:31:01.239Z,96.60
2017-09-12T01:33:28.695Z,96.40
2017-09-12T01:35:56.186Z,96.60
2017-09-12T01:38:24.408Z,97.00
2017-09-12T01:40:51.869Z,96.70
2017-09-12T01:43:19.344Z,97.00
2017-09-12T01:45:46.810Z,98.20
2017-09-12T01:48:14.296Z,98.90
2017-09-12T01:50:42.515Z,98.30
2017-09-12T01:53:09.979Z,98.20
2017-09-12T01:55:37.464Z,98.80
2017-09-12T01:58:04.928Z,98.70
2017-09-12T02:00:32.382Z,99.80
2017-09-12T02:02:59.871Z,99.90
2017-09-12T02:05:27.332Z,99.90
2017-09-12T02:07:54.826Z,99.90
2017-09-12T02:10:22.279Z,99.90
2017-09-12T02:12:49.759Z,99.90
2017-09-12T02:15:17.235Z,99.90
2017-09-12T02:17:45.451Z,99.90
2017-09-12T02:20:12.923Z,99.90
2017-09-12T02:22:40.395Z,99.90
2017-09-12T02:25:07.859Z,99.90
2017-09-12T02:27:35.327Z,99.90
2017-09-12T02:30:03.573Z,99.90
2017-09-12T02:32:31.038Z,99.90
2017-09-12T02:34:58.510Z,99.90
2017-09-12T02:37:25.980Z,99.90
2017-09-12T02:39:54.225Z,99.90
2017-09-12T02:42:21.675Z,99.90
2017-09-12T02:44:50.664Z,99.90
2017-09-12T02:47:18.141Z,99.90
2017-09-12T02:49:45.627Z,99.90
2017-09-12T02:52:13.088Z,99.90
2017-09-12T02:54:40.548Z,99.90
2017-09-12T02:57:08.031Z,99.90
2017-09-12T02:59:35.488Z,99.90
2017-09-12T03:02:02.964Z,99.90
2017-09-12T03:04:30.421Z,99.90
2017-09-12T03:06:57.909Z,99.90
2017-09-12T03:09:26.125Z,99.90
2017-09-12T03:11:53.587Z,99.90
2017-09-12T03:14:21.054Z,99.90
2017-09-12T03:16:48.519Z,99.90
2017-09-12T03:19:15.997Z,99.90
2017-09-12T03:21:43.497Z,99.90
2017-09-12T03:24:10.970Z,99.90
2017-09-12T03:26:38.447Z,99.90
2017-09-12T03:29:05.906Z,99.90
2017-09-12T03:31:33.388Z,99.90
2017-09-12T03:34:02.620Z,99.90
2017-09-12T03:36:30.111Z,99.90
2017-09-12T03:38:57.563Z,99.90
2017-09-12T03:41:25.028Z,99.90
2017-09-12T03:43:52.524Z,99.90
2017-09-12T03:46:20.744Z,99.90
2017-09-12T03:48:48.203Z,99.90
2017-09-12T03:51:15.691Z,99.90
2017-09-12T03:53:43.143Z,99.90
2017-09-12T03:56:10.649Z,99.90
2017-09-12T03:58:38.119Z,99.90
2017-09-12T04:01:05.595Z,99.90
2017-09-12T04:03:33.056Z,99.90
2017-09-12T04:06:00.539Z,99.90
2017-09-12T04:08:28.818Z,99.90
2017-09-12T04:10:57.048Z,99.90
2017-09-12T04:13:24.540Z,99.90
2017-09-12T04:15:52.788Z,99.90
2017-09-12T04:18:20.275Z,99.90
2017-09-12T04:20:48.494Z,99.90
2017-09-12T04:23:15.976Z,99.90
2017-09-12T04:25:43.440Z,99.90
2017-09-12T04:28:10.936Z,99.90
2017-09-12T04:30:39.163Z,99.90
2017-09-12T04:33:06.620Z,99.90
2017-09-12T04:35:34.099Z,99.90
2017-09-12T04:38:01.561Z,99.90
2017-09-12T04:40:29.807Z,99.90
2017-09-12T04:42:57.275Z,99.90
2017-09-12T04:45:25.508Z,99.90
2017-09-12T04:47:52.989Z,99.90
2017-09-12T04:50:20.452Z,99.90
2017-09-12T04:52:47.931Z,99.90
2017-09-12T04:55:15.403Z,99.90
2017-09-12T04:57:43.644Z,99.90
2017-09-12T05:00:11.104Z,99.90
2017-09-12T05:02:38.577Z,99.90
2017-09-12T05:05:06.064Z,99.90
2017-09-12T05:07:33.531Z,99.90
2017-09-12T05:10:01.014Z,99.90
2017-09-12T05:12:28.488Z,99.90
2017-09-12T05:14:55.958Z,99.90
2017-09-12T05:17:23.431Z,99.90
2017-09-12T05:19:51.663Z,99.90
2017-09-12T05:22:19.144Z,99.90
2017-09-12T05:24:46.613Z,99.90
2017-09-12T05:27:14.857Z,99.90
2017-09-12T05:29:42.320Z,99.90
2017-09-12T05:32:09.820Z,99.90
2017-09-12T05:34:37.288Z,99.90
2017-09-12T05:37:04.754Z,99.90
2017-09-12T05:39:32.322Z,99.90
2017-09-12T05:41:59.776Z,99.90
2017-09-12T05:44:27.263Z,99.90
2017-09-12T05:46:54.739Z,99.90
2017-09-12T05:49:22.995Z,99.90
2017-09-12T05:51:50.459Z,99.90
2017-09-12T05:54:17.939Z,99.90
2017-09-12T05:56:46.163Z,99.90
2017-09-12T05:59:13.626Z,99.90
2017-09-12T06:01:41.111Z,99.90
2017-09-12T06:04:08.587Z,99.90
2017-09-12T06:06:36.838Z,99.90
2017-09-12T06:09:04.302Z,99.90
2017-09-12T06:11:32.543Z,99.90
2017-09-12T06:14:00.003Z,99.90
2017-09-12T06:16:27.476Z,99.90
2017-09-12T06:18:55.710Z,99.90
2017-09-12T06:21:23.188Z,99.90
2017-09-12T06:23:50.655Z,99.90
2017-09-12T06:26:18.112Z,99.90
2017-09-12T06:28:45.597Z,99.90
2017-09-12T06:31:13.831Z,99.90
2017-09-12T06:33:41.292Z,99.90
2017-09-12T06:36:08.783Z,99.90
2017-09-12T06:38:37.027Z,99.90
2017-09-12T06:41:04.498Z,99.90
2017-09-12T06:43:31.963Z,99.90
2017-09-12T06:46:00.193Z,99.90
2017-09-12T06:48:27.701Z,99.90
2017-09-12T06:50:56.071Z,99.90
2017-09-12T06:53:23.560Z,99.90
2017-09-12T06:55:51.026Z,99.90
2017-09-12T06:58:18.514Z,99.90
2017-09-12T07:00:45.978Z,99.90
2017-09-12T07:03:13.439Z,99.90
2017-09-12T07:05:40.926Z,99.90
2017-09-12T07:08:09.154Z,99.90
2017-09-12T07:10:36.631Z,99.90
2017-09-12T07:13:04.099Z,99.90
2017-09-12T07:15:31.566Z,99.90
2017-09-12T07:17:59.804Z,99.90
2017-09-12T07:20:27.275Z,99.90
2017-09-12T07:22:54.747Z,99.90
2017-09-12T07:25:22.971Z,99.90
2017-09-12T07:27:50.447Z,99.90
2017-09-12T07:30:17.919Z,99.90
2017-09-12T07:32:45.405Z,99.90
2017-09-12T07:35:13.647Z,99.90
2017-09-12T07:37:41.252Z,99.90
2017-09-12T07:40:08.716Z,99.90
2017-09-12T07:42:36.203Z,99.90
2017-09-12T07:45:03.679Z,99.90
2017-09-12T07:47:31.150Z,99.90
2017-09-12T07:49:59.391Z,99.90
2017-09-12T07:52:26.860Z,99.90
2017-09-12T07:54:54.335Z,99.90
2017-09-12T07:57:21.811Z,99.90
2017-09-12T07:59:50.044Z,99.90
2017-09-12T08:02:17.537Z,99.90
2017-09-12T08:04:45.768Z,99.90
2017-09-12T08:07:13.235Z,99.90
2017-09-12T08:09:41.483Z,99.90
2017-09-12T08:12:08.943Z,99.90
2017-09-12T08:14:36.424Z,99.90
2017-09-12T08:17:03.891Z,99.90
2017-09-12T08:19:31.372Z,99.90
2017-09-12T08:21:59.611Z,99.80
2017-09-12T08:24:27.087Z,99.60
2017-09-12T08:26:54.563Z,99.90
2017-09-12T08:29:22.035Z,99.90
2017-09-12T08:31:49.509Z,99.80
2017-09-12T08:34:16.991Z,99.90
2017-09-12T08:36:44.455Z,98.80
2017-09-12T08:39:11.972Z,99.10
2017-09-12T08:41:39.486Z,99.70
2017-09-12T08:44:06.935Z,98.70
2017-09-12T08:46:34.396Z,98.60
2017-09-12T08:49:01.892Z,98.40
2017-09-12T08:51:29.352Z,98.50
2017-09-12T08:53:56.819Z,97.60
2017-09-12T08:56:24.313Z,98.30
2017-09-12T08:58:52.556Z,97.80
2017-09-12T09:01:20.027Z,97.80
2017-09-12T09:03:47.491Z,97.60
2017-09-12T09:06:14.971Z,97.40
2017-09-12T09:08:43.223Z,97.50
2017-09-12T09:11:10.704Z,97.40
2017-09-12T09:13:38.955Z,96.10
2017-09-12T09:16:06.420Z,95.80
2017-09-12T09:18:33.884Z,96.20
2017-09-12T09:21:01.360Z,95.40
2017-09-12T09:23:29.587Z,94.30
2017-09-12T09:25:57.151Z,94.30
2017-09-12T09:28:24.676Z,93.90
2017-09-12T09:30:52.157Z,94.80
2017-09-12T09:33:19.606Z,94.30
2017-09-12T09:35:47.066Z,94.40
2017-09-12T09:38:14.552Z,92.90
2017-09-12T09:40:42.061Z,91.70
2017-09-12T09:43:09.521Z,92.10
2017-09-12T09:45:37.003Z,91.90
2017-09-12T09:48:04.464Z,91.40
2017-09-12T09:50:31.956Z,90.70
2017-09-12T09:53:00.176Z,90.70
2017-09-12T09:55:27.655Z,90.70
2017-09-12T09:57:55.139Z,90.50
2017-09-12T10:00:23.384Z,81.90
2017-09-12T10:02:50.852Z,81.80
2017-09-12T10:05:18.315Z,78.20
2017-09-12T10:07:45.788Z,82.20
2017-09-12T10:10:14.012Z,86.80
2017-09-12T10:12:41.520Z,86.70
2017-09-12T10:15:09.745Z,77.80
2017-09-12T10:17:37.204Z,77.50
2017-09-12T10:20:04.688Z,76.20
2017-09-12T10:22:32.139Z,75.10
2017-09-12T10:24:59.610Z,77.10
2017-09-12T10:27:27.103Z,81.80
2017-09-12T10:29:54.568Z,85.40
2017-09-12T10:32:22.045Z,87.70
2017-09-12T10:34:49.508Z,88.50
2017-09-12T10:37:16.989Z,84.90
2017-09-12T10:39:45.973Z,86.10
2017-09-12T10:42:13.435Z,86.10
2017-09-12T10:44:40.918Z,90.00
2017-09-12T10:47:09.148Z,93.50
2017-09-12T10:49:36.623Z,93.60
2017-09-12T10:52:04.095Z,92.20
2017-09-12T10:54:32.334Z,84.80
2017-09-12T10:56:59.823Z,84.70
2017-09-12T10:59:27.280Z,79.90
2017-09-12T11:01:55.528Z,78.10
2017-09-12T11:04:22.978Z,78.10
2017-09-12T11:06:50.469Z,77.70
2017-09-12T11:09:18.706Z,77.20
2017-09-12T11:11:46.180Z,77.20
2017-09-12T11:14:14.419Z,85.30
2017-09-12T11:16:41.880Z,85.50
2017-09-12T11:19:09.352Z,90.60
2017-09-12T11:21:36.819Z,96.40
2017-09-12T11:24:04.298Z,99.90
2017-09-12T11:26:32.535Z,99.10
2017-09-12T11:29:00.065Z,99.10
2017-09-12T11:31:27.548Z,93.10
2017-09-12T11:33:55.005Z,91.70
2017-09-12T11:36:22.584Z,94.30
2017-09-12T11:38:50.997Z,96.50
2017-09-12T11:41:18.480Z,97.30
2017-09-12T11:43:45.976Z,96.40
2017-09-12T11:46:13.446Z,99.30
2017-09-12T11:48:40.914Z,97.30
2017-09-12T11:51:09.159Z,97.20
2017-09-12T11:53:36.639Z,97.30
2017-09-12T11:56:04.883Z,93.10
2017-09-12T11:58:32.360Z,93.00
2017-09-12T12:00:59.854Z,91.10
2017-09-12T12:03:27.303Z,92.70
2017-09-12T12:05:54.778Z,95.30
2017-09-12T12:08:22.247Z,93.70
2017-09-12T12:10:49.732Z,93.30
2017-09-12T12:13:17.249Z,92.50
2017-09-12T12:15:44.699Z,92.80
2017-09-12T12:18:12.175Z,93.50
2017-09-12T12:20:39.651Z,94.70
2017-09-12T12:23:07.140Z,96.70
2017-09-12T12:25:35.407Z,96.90
2017-09-12T12:28:02.891Z,96.90
2017-09-12T12:30:30.350Z,96.80
2017-09-12T12:32:57.808Z,96.50
2017-09-12T12:35:25.283Z,96.90
2017-09-12T12:37:52.731Z,95.80
2017-09-12T12:40:20.223Z,94.70
2017-09-12T12:42:47.687Z,95.00
2017-09-12T12:45:15.155Z,94.30
2017-09-12T12:47:43.408Z,96.80
2017-09-12T12:50:10.867Z,96.80
2017-09-12T12:52:38.339Z,98.30
2017-09-12T12:55:05.874Z,99.20
2017-09-12T12:57:33.341Z,98.40
2017-09-12T13:00:00.811Z,98.20
2017-09-12T13:02:28.287Z,94.80
2017-09-12T13:04:56.516Z,90.20
2017-09-12T13:07:23.995Z,90.20
2017-09-12T13:09:51.483Z,90.00
2017-09-12T13:12:19.716Z,87.90
2017-09-12T13:14:47.175Z,88.10
2017-09-12T13:17:14.659Z,88.40
2017-09-12T13:19:42.914Z,88.10
2017-09-12T13:22:10.391Z,88.20
2017-09-12T13:24:38.632Z,86.40
2017-09-12T13:27:06.088Z,86.40
2017-09-12T13:29:33.572Z,86.90
2017-09-12T13:32:01.792Z,84.70
2017-09-12T13:34:29.267Z,84.60
2017-09-12T13:36:56.738Z,85.70
2017-09-12T13:39:24.212Z,87.30
2017-09-12T13:41:51.667Z,87.00
2017-09-12T13:44:19.127Z,88.10
2017-09-12T13:46:47.360Z,88.00
2017-09-12T13:49:14.817Z,87.40
2017-09-12T13:51:42.301Z,85.90
2017-09-12T13:54:09.908Z,86.00
2017-09-12T13:56:37.373Z,86.30
2017-09-12T13:59:04.930Z,88.70
2017-09-12T14:01:32.387Z,88.60
2017-09-12T14:03:59.847Z,87.00
2017-09-12T14:06:27.326Z,88.00
2017-09-12T14:08:54.799Z,85.00
2017-09-12T14:11:22.311Z,84.00
2017-09-12T14:13:49.771Z,85.30
2017-09-12T14:16:17.240Z,85.90
2017-09-12T14:18:44.715Z,87.30
2017-09-12T14:21:12.188Z,86.00
2017-09-12T14:23:39.676Z,84.20
2017-09-12T14:26:07.155Z,87.90
2017-09-12T14:28:34.694Z,86.60
2017-09-12T14:31:02.908Z,85.00
2017-09-12T14:33:30.374Z,85.00
2017-09-12T14:35:57.848Z,85.80
2017-09-12T14:38:25.308Z,84.90
2017-09-12T14:40:52.787Z,83.80
2017-09-12T14:43:21.035Z,84.00
2017-09-12T14:45:48.514Z,83.90
2017-09-12T14:48:16.731Z,81.30
2017-09-12T14:50:44.243Z,81.20
2017-09-12T14:53:12.479Z,81.40
2017-09-12T14:55:39.951Z,81.40
2017-09-12T14:58:07.427Z,81.70
2017-09-12T15:00:35.655Z,81.40
2017-09-12T15:03:03.181Z,81.30
2017-09-12T15:05:30.681Z,80.50
2017-09-12T15:07:58.179Z,81.50
2017-09-12T15:10:26.403Z,83.20
2017-09-12T15:12:53.865Z,83.20
2017-09-12T15:15:21.341Z,84.80
2017-09-12T15:17:48.799Z,83.70
2017-09-12T15:20:16.289Z,84.30
2017-09-12T15:22:43.764Z,83.60
2017-09-12T15:25:11.230Z,81.40
2017-09-12T15:27:38.720Z,79.10
2017-09-12T15:30:06.188Z,78.20
2017-09-12T15:32:33.667Z,78.70
2017-09-12T15:35:01.925Z,76.80
2017-09-12T15:37:29.386Z,76.80
2017-09-12T15:39:57.643Z,76.00
2017-09-12T15:42:25.112Z,76.00
2017-09-12T15:44:52.590Z,75.50
2017-09-12T15:47:20.830Z,76.00
2017-09-12T15:49:48.316Z,75.90
2017-09-12T15:52:16.539Z,77.90
2017-09-12T15:54:44.019Z,77.70
2017-09-12T15:57:11.485Z,77.00
2017-09-12T15:59:38.946Z,77.20
2017-09-12T16:02:07.195Z,77.50
2017-09-12T16:04:34.664Z,77.00
2017-09-12T16:07:02.128Z,77.10
2017-09-12T16:09:29.591Z,77.50
2017-09-12T16:11:57.847Z,78.70
2017-09-12T16:14:25.340Z,78.70
2017-09-12T16:16:53.572Z,80.50
2017-09-12T16:19:21.063Z,80.60
2017-09-12T16:21:49.303Z,81.20
2017-09-12T16:24:16.771Z,81.20
2017-09-12T16:26:44.255Z,80.50
2017-09-12T16:29:12.504Z,80.70
2017-09-12T16:31:39.979Z,80.60
2017-09-12T16:34:08.219Z,80.80
2017-09-12T16:36:35.698Z,80.70
2017-09-12T16:39:03.171Z,81.70
2017-09-12T16:41:31.400Z,81.90
2017-09-12T16:43:58.891Z,81.80
2017-09-12T16:46:27.133Z,82.50
2017-09-12T16:48:54.612Z,82.30
2017-09-12T16:51:22.095Z,82.50
2017-09-12T16:53:50.348Z,83.40
2017-09-12T16:56:17.807Z,83.20
2017-09-12T16:58:45.284Z,83.40
2017-09-12T17:01:12.752Z,84.20
2017-09-12T17:03:40.228Z,84.30
2017-09-12T17:06:07.707Z,84.50
2017-09-12T17:08:35.194Z,85.40
2017-09-12T17:11:02.670Z,86.10
2017-09-12T17:13:30.130Z,85.90
2017-09-12T17:15:57.706Z,87.30
2017-09-12T17:18:25.180Z,87.40
2017-09-12T17:20:52.666Z,88.20
2017-09-12T17:23:20.151Z,88.90
2017-09-12T17:25:48.385Z,89.70
2017-09-12T17:28:15.849Z,89.60
2017-09-12T17:30:43.333Z,90.20
2017-09-12T17:33:11.661Z,90.40
2017-09-12T17:35:39.507Z,90.40
2017-09-12T17:38:07.219Z,90.80
2017-09-12T17:40:35.853Z,91.80
2017-09-12T17:43:03.720Z,91.80
2017-09-12T17:45:31.689Z,91.60
2017-09-12T17:47:59.661Z,92.10
2017-09-12T17:50:27.211Z,93.00
2017-09-12T17:52:55.289Z,93.80
2017-09-12T17:55:22.871Z,94.50
2017-09-12T17:57:50.942Z,94.70
2017-09-12T18:00:19.244Z,94.20
2017-09-12T18:02:47.163Z,94.20
2017-09-12T18:05:15.665Z,93.50
2017-09-12T18:07:43.309Z,93.50
2017-09-12T18:10:10.871Z,93.60
2017-09-12T18:12:38.373Z,93.80
2017-09-12T18:15:05.893Z,93.50
2017-09-12T18:17:33.457Z,93.70
2017-09-12T18:20:01.091Z,93.70
2017-09-12T18:22:28.735Z,93.60
2017-09-12T18:24:56.305Z,93.80
2017-09-12T18:27:23.800Z,94.20
2017-09-12T18:29:51.341Z,94.50
2017-09-12T18:32:19.016Z,95.00
2017-09-12T18:34:46.488Z,95.30
2017-09-12T18:37:14.042Z,95.60
2017-09-12T18:39:41.576Z,95.90
2017-09-12T18:42:09.111Z,95.90
2017-09-12T18:44:37.097Z,99.90
2017-09-12T18:47:04.718Z,99.90
2017-09-12T18:49:32.991Z,99.90
2017-09-12T18:52:00.591Z,99.90
2017-09-12T18:54:28.130Z,99.90
2017-09-12T18:56:55.926Z,99.90
2017-09-12T18:59:23.530Z,99.90
2017-09-12T19:01:51.046Z,99.90
2017-09-12T19:04:19.476Z,99.90
2017-09-12T19:06:47.090Z,99.90
2017-09-12T19:09:14.783Z,99.90
2017-09-12T19:11:43.084Z,99.90
2017-09-12T19:14:10.759Z,99.90
2017-09-12T19:16:38.427Z,99.90
2017-09-12T19:19:06.854Z,99.90
2017-09-12T19:21:34.484Z,99.90
2017-09-12T19:24:02.797Z,99.90
2017-09-12T19:26:31.109Z,99.90
2017-09-12T19:28:58.632Z,99.90
2017-09-12T19:31:26.903Z,99.90
2017-09-12T19:33:54.463Z,99.90
2017-09-12T19:36:22.703Z,99.90
2017-09-12T19:38:50.181Z,99.90
2017-09-12T19:41:17.660Z,99.90
2017-09-12T19:43:45.968Z,99.90
2017-09-12T19:46:13.442Z,99.90
2017-09-12T19:48:40.900Z,99.90
2017-09-12T19:51:08.375Z,99.90
2017-09-12T19:53:35.859Z,99.90
2017-09-12T19:56:04.131Z,99.90
2017-09-12T19:58:32.380Z,99.90
2017-09-12T20:01:01.545Z,99.90
2017-09-12T20:03:29.029Z,99.90
2017-09-12T20:05:56.491Z,99.90
2017-09-12T20:08:23.983Z,99.90
2017-09-12T20:10:52.223Z,99.90
2017-09-12T20:13:19.733Z,99.90
2017-09-12T20:15:47.204Z,99.90
2017-09-12T20:18:14.675Z,99.90
2017-09-12T20:20:42.180Z,99.90
2017-09-12T20:23:10.403Z,99.90
2017-09-12T20:25:37.892Z,99.90
2017-09-12T20:28:05.384Z,99.90
2017-09-12T20:30:33.671Z,99.90
2017-09-12T20:33:01.253Z,99.90
2017-09-12T20:35:28.719Z,99.90
2017-09-12T20:37:56.199Z,99.90
2017-09-12T20:40:23.660Z,99.90
2017-09-12T20:42:51.143Z,99.90
2017-09-12T20:45:19.372Z,99.90
2017-09-12T20:47:46.842Z,99.90
2017-09-12T20:50:14.365Z,99.90
2017-09-12T20:52:41.827Z,99.90
2017-09-12T20:55:09.304Z,99.90
2017-09-12T20:57:36.772Z,99.90
2017-09-12T21:00:04.255Z,99.90
2017-09-12T21:02:31.743Z,99.90
2017-09-12T21:04:59.210Z,99.90
2017-09-12T21:07:26.716Z,99.90
2017-09-12T21:09:55.026Z,99.90
2017-09-12T21:12:22.520Z,99.90
2017-09-12T21:14:51.295Z,99.90
2017-09-12T21:17:18.826Z,99.90
2017-09-12T21:19:46.303Z,99.90
2017-09-12T21:22:13.791Z,99.90
2017-09-12T21:24:41.276Z,99.90
2017-09-12T21:27:08.735Z,99.90
2017-09-12T21:29:36.223Z,99.90
2017-09-12T21:32:03.687Z,99.90
2017-09-12T21:34:31.175Z,99.90
2017-09-12T21:36:58.655Z,99.90
2017-09-12T21:39:26.892Z,99.90
2017-09-12T21:41:54.359Z,99.90
2017-09-12T21:44:21.835Z,99.90
2017-09-12T21:46:50.068Z,99.90
2017-09-12T21:49:17.543Z,99.90
2017-09-12T21:51:44.999Z,99.90
2017-09-12T21:54:12.480Z,99.90
2017-09-12T21:56:40.715Z,99.90
2017-09-12T21:59:08.204Z,99.90
2017-09-12T22:01:36.426Z,99.90
2017-09-12T22:04:03.900Z,99.90
2017-09-12T22:06:31.378Z,99.90
2017-09-12T22:08:59.607Z,99.90
2017-09-12T22:11:27.087Z,99.90
2017-09-12T22:13:54.551Z,99.90
2017-09-12T22:16:22.027Z,99.90
2017-09-12T22:18:50.258Z,99.90
2017-09-12T22:21:17.733Z,99.90
2017-09-12T22:23:45.215Z,99.90
2017-09-12T22:26:12.668Z,99.90
2017-09-12T22:28:40.128Z,99.90
2017-09-12T22:31:09.111Z,99.90
2017-09-12T22:33:36.568Z,99.90
2017-09-12T22:36:04.048Z,99.90
2017-09-12T22:38:32.291Z,99.90
2017-09-12T22:40:59.756Z,99.90
2017-09-12T22:43:27.987Z,99.90
2017-09-12T22:45:55.458Z,99.90
2017-09-12T22:48:22.938Z,99.90
2017-09-12T22:50:50.391Z,99.90
2017-09-12T22:53:19.378Z,99.90
2017-09-12T22:55:46.842Z,99.90
2017-09-12T22:58:14.325Z,99.90
2017-09-12T23:00:42.570Z,99.90
2017-09-12T23:03:10.031Z,99.90
2017-09-12T23:05:38.251Z,99.90
2017-09-12T23:08:05.732Z,99.90
2017-09-12T23:10:33.206Z,99.90
2017-09-12T23:13:00.667Z,99.90
2017-09-12T23:15:28.132Z,99.80
2017-09-12T23:17:55.612Z,99.90
2017-09-12T23:20:23.857Z,99.90
2017-09-12T23:22:51.319Z,99.90
2017-09-12T23:25:18.787Z,99.40
2017-09-12T23:27:46.242Z,99.00
2017-09-12T23:30:14.403Z,98.90
2017-09-12T23:32:41.863Z,98.90
2017-09-12T23:35:09.323Z,98.70
2017-09-12T23:37:36.807Z,98.60
2017-09-12T23:40:05.031Z,98.30
2017-09-12T23:42:32.513Z,98.30
2017-09-12T23:44:59.971Z,97.90
2017-09-12T23:47:27.423Z,97.90
2017-09-12T23:49:54.903Z,97.70
2017-09-12T23:52:23.141Z,97.60
2017-09-12T23:54:50.604Z,97.60
2017-09-12T23:57:18.086Z,97.00
2017-09-12T23:59:46.500Z,97.30
